sensor_id;sensor_type;location;lat;lon;timestamp;pressure;altitude;pressure_sealevel;temperature;humidity
7264;BME280;3673;52.480;13.348;2023-05-03T00:02:08;102219.50;;;13.62;40.23
7264;BME280;3673;52.480;13.348;2023-05-03T00:04:35;102214.75;;;14.18;39.59
7264;BME280;3673;52.480;13.348;2023-05-03T00:07:02;102222.25;;;13.72;40.38
7264;BME280;3673;52.480;13.348;2023-05-03T00:09:29;102221.31;;;13.64;40.50
7264;BME280;3673;52.480;13.348;2023-05-03T00:11:57;102221.06;;;13.45;41.29
7264;BME280;3673;52.480;13.348;2023-05-03T00:14:25;102219.31;;;13.45;40.76
7264;BME280;3673;52.480;13.348;2023-05-03T00:16:51;102220.91;;;13.31;40.97
7264;BME280;3673;52.480;13.348;2023-05-03T00:19:18;102221.94;;;13.40;40.97
7264;BME280;3673;52.480;13.348;2023-05-03T00:21:45;102229.66;;;13.28;41.28
7264;BME280;3673;52.480;13.348;2023-05-03T00:24:12;102221.41;;;13.78;40.35
7264;BME280;3673;52.480;13.348;2023-05-03T00:26:39;102225.72;;;13.71;40.29
7264;BME280;3673;52.480;13.348;2023-05-03T00:29:07;102226.31;;;13.43;40.80
7264;BME280;3673;52.480;13.348;2023-05-03T00:31:34;102221.75;;;13.28;40.77
7264;BME280;3673;52.480;13.348;2023-05-03T00:34:00;102225.72;;;13.67;40.47
7264;BME280;3673;52.480;13.348;2023-05-03T00:36:27;102224.59;;;13.45;40.79
7264;BME280;3673;52.480;13.348;2023-05-03T00:38:55;102219.91;;;13.20;41.13
7264;BME280;3673;52.480;13.348;2023-05-03T00:41:22;102230.06;;;13.65;40.49
7264;BME280;3673;52.480;13.348;2023-05-03T00:43:49;102226.22;;;13.34;40.74
7264;BME280;3673;52.480;13.348;2023-05-03T00:46:17;102226.09;;;13.23;40.97
7264;BME280;3673;52.480;13.348;2023-05-03T00:48:44;102235.16;;;13.50;40.25
7264;BME280;3673;52.480;13.348;2023-05-03T00:51:14;102221.13;;;13.48;39.74
7264;BME280;3673;52.480;13.348;2023-05-03T00:53:42;102229.97;;;13.54;40.06
7264;BME280;3673;52.480;13.348;2023-05-03T00:56:09;102223.88;;;13.60;40.01
7264;BME280;3673;52.480;13.348;2023-05-03T00:58:37;102219.94;;;14.04;39.13
7264;BME280;3673;52.480;13.348;2023-05-03T01:01:05;102220.91;;;14.17;38.86
7264;BME280;3673;52.480;13.348;2023-05-03T01:03:35;102227.88;;;14.10;38.63
7264;BME280;3673;52.480;13.348;2023-05-03T01:06:09;102222.47;;;13.95;38.92
7264;BME280;3673;52.480;13.348;2023-05-03T01:08:43;102219.66;;;13.74;39.45
7264;BME280;3673;52.480;13.348;2023-05-03T01:11:15;102217.06;;;13.05;40.54
7264;BME280;3673;52.480;13.348;2023-05-03T01:13:54;102221.75;;;13.27;40.49
7264;BME280;3673;52.480;13.348;2023-05-03T01:16:29;102220.09;;;13.33;40.44
7264;BME280;3673;52.480;13.348;2023-05-03T01:19:03;102221.13;;;13.49;40.40
7264;BME280;3673;52.480;13.348;2023-05-03T01:21:31;102222.66;;;13.29;40.64
7264;BME280;3673;52.480;13.348;2023-05-03T01:24:03;102230.22;;;13.80;40.02
7264;BME280;3673;52.480;13.348;2023-05-03T01:26:34;102223.63;;;13.38;40.31
7264;BME280;3673;52.480;13.348;2023-05-03T01:29:01;102239.63;;;13.58;40.27
7264;BME280;3673;52.480;13.348;2023-05-03T01:31:33;102233.56;;;13.65;39.87
7264;BME280;3673;52.480;13.348;2023-05-03T01:34:17;102235.16;;;13.50;40.18
7264;BME280;3673;52.480;13.348;2023-05-03T01:36:48;102229.84;;;13.45;40.16
7264;BME280;3673;52.480;13.348;2023-05-03T01:39:21;102224.44;;;13.31;40.51
7264;BME280;3673;52.480;13.348;2023-05-03T01:41:50;102231.72;;;13.54;40.24
7264;BME280;3673;52.480;13.348;2023-05-03T01:44:19;102227.09;;;13.34;40.50
7264;BME280;3673;52.480;13.348;2023-05-03T01:46:47;102237.88;;;13.57;40.61
7264;BME280;3673;52.480;13.348;2023-05-03T01:49:14;102224.03;;;13.78;40.09
7264;BME280;3673;52.480;13.348;2023-05-03T01:51:41;102234.41;;;13.60;39.91
7264;BME280;3673;52.480;13.348;2023-05-03T01:54:08;102231.91;;;13.00;41.12
7264;BME280;3673;52.480;13.348;2023-05-03T01:56:35;102230.16;;;13.00;41.31
7264;BME280;3673;52.480;13.348;2023-05-03T01:59:04;102223.31;;;13.11;41.31
7264;BME280;3673;52.480;13.348;2023-05-03T02:01:31;102221.78;;;13.30;40.83
7264;BME280;3673;52.480;13.348;2023-05-03T02:03:58;102231.66;;;12.83;41.74
7264;BME280;3673;52.480;13.348;2023-05-03T02:06:25;102229.22;;;12.97;41.21
7264;BME280;3673;52.480;13.348;2023-05-03T02:08:52;102236.91;;;12.83;41.41
7264;BME280;3673;52.480;13.348;2023-05-03T02:11:23;102224.19;;;13.12;41.42
7264;BME280;3673;52.480;13.348;2023-05-03T02:13:50;102240.63;;;12.99;41.12
7264;BME280;3673;52.480;13.348;2023-05-03T02:16:18;102234.78;;;12.58;42.40
7264;BME280;3673;52.480;13.348;2023-05-03T02:18:45;102238.50;;;12.70;41.46
7264;BME280;3673;52.480;13.348;2023-05-03T02:21:12;102243.03;;;12.82;41.99
7264;BME280;3673;52.480;13.348;2023-05-03T02:23:38;102243.50;;;13.15;40.87
7264;BME280;3673;52.480;13.348;2023-05-03T02:26:06;102239.00;;;13.07;41.15
7264;BME280;3673;52.480;13.348;2023-05-03T02:28:33;102248.59;;;13.05;40.98
7264;BME280;3673;52.480;13.348;2023-05-03T02:31:00;102250.50;;;13.13;41.42
7264;BME280;3673;52.480;13.348;2023-05-03T02:33:28;102248.69;;;13.09;41.20
7264;BME280;3673;52.480;13.348;2023-05-03T02:35:55;102246.72;;;12.96;41.04
7264;BME280;3673;52.480;13.348;2023-05-03T02:38:22;102254.47;;;12.84;41.43
7264;BME280;3673;52.480;13.348;2023-05-03T02:40:49;102263.31;;;12.92;41.64
7264;BME280;3673;52.480;13.348;2023-05-03T02:43:15;102259.56;;;12.73;41.68
7264;BME280;3673;52.480;13.348;2023-05-03T02:45:42;102255.53;;;12.39;42.18
7264;BME280;3673;52.480;13.348;2023-05-03T02:48:09;102267.94;;;12.50;42.15
7264;BME280;3673;52.480;13.348;2023-05-03T02:50:38;102266.41;;;12.65;41.92
7264;BME280;3673;52.480;13.348;2023-05-03T02:53:05;102261.38;;;12.79;41.93
7264;BME280;3673;52.480;13.348;2023-05-03T02:55:32;102262.38;;;12.88;41.77
7264;BME280;3673;52.480;13.348;2023-05-03T02:57:59;102264.97;;;12.84;41.50
7264;BME280;3673;52.480;13.348;2023-05-03T03:00:27;102262.50;;;12.96;41.34
7264;BME280;3673;52.480;13.348;2023-05-03T03:02:53;102268.47;;;12.86;41.78
7264;BME280;3673;52.480;13.348;2023-05-03T03:05:20;102277.94;;;12.73;41.57
7264;BME280;3673;52.480;13.348;2023-05-03T03:07:48;102277.13;;;12.79;41.99
7264;BME280;3673;52.480;13.348;2023-05-03T03:10:15;102277.28;;;12.89;41.61
7264;BME280;3673;52.480;13.348;2023-05-03T03:12:42;102282.22;;;12.67;41.37
7264;BME280;3673;52.480;13.348;2023-05-03T03:15:10;102272.22;;;12.45;42.15
7264;BME280;3673;52.480;13.348;2023-05-03T03:17:38;102279.44;;;12.05;43.35
7264;BME280;3673;52.480;13.348;2023-05-03T03:20:06;102282.72;;;12.45;42.62
7264;BME280;3673;52.480;13.348;2023-05-03T03:22:35;102280.22;;;12.52;42.31
7264;BME280;3673;52.480;13.348;2023-05-03T03:25:03;102276.72;;;12.52;42.27
7264;BME280;3673;52.480;13.348;2023-05-03T03:27:31;102283.94;;;12.66;41.93
7264;BME280;3673;52.480;13.348;2023-05-03T03:29:57;102279.50;;;12.62;41.82
7264;BME280;3673;52.480;13.348;2023-05-03T03:32:25;102280.84;;;12.36;42.47
7264;BME280;3673;52.480;13.348;2023-05-03T03:34:52;102287.06;;;12.43;42.52
7264;BME280;3673;52.480;13.348;2023-05-03T03:37:19;102295.16;;;12.56;42.34
7264;BME280;3673;52.480;13.348;2023-05-03T03:39:46;102291.78;;;12.12;42.98
7264;BME280;3673;52.480;13.348;2023-05-03T03:42:14;102293.97;;;12.37;42.74
7264;BME280;3673;52.480;13.348;2023-05-03T03:44:41;102298.63;;;12.54;42.21
7264;BME280;3673;52.480;13.348;2023-05-03T03:47:08;102304.06;;;12.66;42.09
7264;BME280;3673;52.480;13.348;2023-05-03T03:49:35;102305.50;;;11.98;43.22
7264;BME280;3673;52.480;13.348;2023-05-03T03:52:02;102310.69;;;11.95;43.45
7264;BME280;3673;52.480;13.348;2023-05-03T03:54:28;102317.94;;;12.06;43.54
7264;BME280;3673;52.480;13.348;2023-05-03T03:56:55;102312.16;;;11.77;43.50
7264;BME280;3673;52.480;13.348;2023-05-03T03:59:23;102310.59;;;11.88;43.73
7264;BME280;3673;52.480;13.348;2023-05-03T04:01:50;102313.53;;;12.05;43.75
7264;BME280;3673;52.480;13.348;2023-05-03T04:04:17;102308.13;;;11.96;43.59
7264;BME280;3673;52.480;13.348;2023-05-03T04:06:44;102306.09;;;11.81;43.61
7264;BME280;3673;52.480;13.348;2023-05-03T04:09:11;102321.19;;;11.95;43.43
7264;BME280;3673;52.480;13.348;2023-05-03T04:11:38;102326.22;;;12.29;43.16
7264;BME280;3673;52.480;13.348;2023-05-03T04:14:05;102330.84;;;12.45;42.61
7264;BME280;3673;52.480;13.348;2023-05-03T04:16:33;102327.09;;;12.29;42.45
7264;BME280;3673;52.480;13.348;2023-05-03T04:19:00;102334.31;;;11.95;43.34
7264;BME280;3673;52.480;13.348;2023-05-03T04:21:27;102331.09;;;12.09;43.17
7264;BME280;3673;52.480;13.348;2023-05-03T04:23:54;102338.75;;;11.97;43.33
7264;BME280;3673;52.480;13.348;2023-05-03T04:26:21;102338.88;;;12.05;42.98
7264;BME280;3673;52.480;13.348;2023-05-03T04:28:48;102341.38;;;11.97;43.28
7264;BME280;3673;52.480;13.348;2023-05-03T04:31:16;102349.63;;;12.18;43.25
7264;BME280;3673;52.480;13.348;2023-05-03T04:33:45;102349.25;;;11.97;43.21
7264;BME280;3673;52.480;13.348;2023-05-03T04:36:12;102352.84;;;11.62;43.93
7264;BME280;3673;52.480;13.348;2023-05-03T04:38:40;102344.09;;;12.03;43.27
7264;BME280;3673;52.480;13.348;2023-05-03T04:41:07;102349.53;;;12.12;43.09
7264;BME280;3673;52.480;13.348;2023-05-03T04:43:34;102354.34;;;12.37;42.40
7264;BME280;3673;52.480;13.348;2023-05-03T04:46:01;102345.06;;;12.08;43.14
7264;BME280;3673;52.480;13.348;2023-05-03T04:48:28;102347.19;;;12.27;42.70
7264;BME280;3673;52.480;13.348;2023-05-03T04:50:56;102360.00;;;12.11;42.75
7264;BME280;3673;52.480;13.348;2023-05-03T04:53:23;102358.53;;;11.81;43.63
7264;BME280;3673;52.480;13.348;2023-05-03T04:55:50;102360.75;;;12.05;43.03
7264;BME280;3673;52.480;13.348;2023-05-03T04:58:17;102364.78;;;12.34;42.63
7264;BME280;3673;52.480;13.348;2023-05-03T05:00:44;102360.91;;;12.61;42.12
7264;BME280;3673;52.480;13.348;2023-05-03T05:03:11;102367.91;;;12.62;41.73
7264;BME280;3673;52.480;13.348;2023-05-03T05:05:38;102368.19;;;12.27;42.18
7264;BME280;3673;52.480;13.348;2023-05-03T05:08:06;102363.78;;;12.26;42.43
7264;BME280;3673;52.480;13.348;2023-05-03T05:10:36;102362.50;;;12.53;42.26
7264;BME280;3673;52.480;13.348;2023-05-03T05:13:03;102362.03;;;12.78;41.53
7264;BME280;3673;52.480;13.348;2023-05-03T05:15:30;102365.59;;;12.81;41.20
7264;BME280;3673;52.480;13.348;2023-05-03T05:17:57;102365.97;;;13.04;40.83
7264;BME280;3673;52.480;13.348;2023-05-03T05:20:24;102367.84;;;13.11;40.37
7264;BME280;3673;52.480;13.348;2023-05-03T05:22:51;102370.25;;;12.99;40.40
7264;BME280;3673;52.480;13.348;2023-05-03T05:25:20;102372.13;;;13.06;40.67
7264;BME280;3673;52.480;13.348;2023-05-03T05:27:46;102365.84;;;12.97;40.70
7264;BME280;3673;52.480;13.348;2023-05-03T05:30:14;102372.22;;;12.58;41.57
7264;BME280;3673;52.480;13.348;2023-05-03T05:32:41;102380.06;;;12.09;42.72
7264;BME280;3673;52.480;13.348;2023-05-03T05:35:09;102380.69;;;11.96;43.08
7264;BME280;3673;52.480;13.348;2023-05-03T05:37:36;102390.81;;;11.79;43.22
7264;BME280;3673;52.480;13.348;2023-05-03T05:40:05;102380.13;;;12.12;42.45
7264;BME280;3673;52.480;13.348;2023-05-03T05:42:33;102382.91;;;12.21;42.68
7264;BME280;3673;52.480;13.348;2023-05-03T05:45:00;102385.63;;;12.73;41.88
7264;BME280;3673;52.480;13.348;2023-05-03T05:47:27;102389.78;;;12.61;41.67
7264;BME280;3673;52.480;13.348;2023-05-03T05:49:54;102386.22;;;12.59;42.05
7264;BME280;3673;52.480;13.348;2023-05-03T05:52:21;102394.16;;;12.62;41.66
7264;BME280;3673;52.480;13.348;2023-05-03T05:54:48;102399.31;;;12.09;42.40
7264;BME280;3673;52.480;13.348;2023-05-03T05:57:15;102398.47;;;12.12;42.60
7264;BME280;3673;52.480;13.348;2023-05-03T05:59:44;102402.50;;;11.95;43.10
7264;BME280;3673;52.480;13.348;2023-05-03T06:02:14;102406.28;;;12.09;42.74
7264;BME280;3673;52.480;13.348;2023-05-03T06:04:42;102405.66;;;12.22;42.88
7264;BME280;3673;52.480;13.348;2023-05-03T06:07:09;102398.03;;;12.34;42.44
7264;BME280;3673;52.480;13.348;2023-05-03T06:09:36;102397.97;;;12.31;42.61
7264;BME280;3673;52.480;13.348;2023-05-03T06:12:09;102398.75;;;12.73;41.64
7264;BME280;3673;52.480;13.348;2023-05-03T06:14:36;102411.28;;;12.91;41.82
7264;BME280;3673;52.480;13.348;2023-05-03T06:17:04;102408.56;;;13.39;40.94
7264;BME280;3673;52.480;13.348;2023-05-03T06:19:31;102399.31;;;13.67;39.99
7264;BME280;3673;52.480;13.348;2023-05-03T06:21:58;102411.84;;;13.87;39.45
7264;BME280;3673;52.480;13.348;2023-05-03T06:24:26;102411.88;;;13.90;39.37
7264;BME280;3673;52.480;13.348;2023-05-03T06:26:56;102404.13;;;14.03;39.23
7264;BME280;3673;52.480;13.348;2023-05-03T06:29:25;102407.78;;;14.15;39.08
7264;BME280;3673;52.480;13.348;2023-05-03T06:31:52;102413.97;;;14.17;38.42
7264;BME280;3673;52.480;13.348;2023-05-03T06:34:21;102412.38;;;13.61;39.00
7264;BME280;3673;52.480;13.348;2023-05-03T06:36:48;102409.13;;;13.80;38.86
7264;BME280;3673;52.480;13.348;2023-05-03T06:39:15;102415.31;;;13.85;38.63
7264;BME280;3673;52.480;13.348;2023-05-03T06:41:43;102406.97;;;14.22;38.41
7264;BME280;3673;52.480;13.348;2023-05-03T06:44:10;102405.22;;;14.23;37.94
7264;BME280;3673;52.480;13.348;2023-05-03T06:46:37;102413.22;;;14.32;37.69
7264;BME280;3673;52.480;13.348;2023-05-03T06:49:04;102417.16;;;14.70;37.33
7264;BME280;3673;52.480;13.348;2023-05-03T06:51:32;102416.31;;;14.74;37.01
7264;BME280;3673;52.480;13.348;2023-05-03T06:54:00;102414.69;;;14.06;37.63
7264;BME280;3673;52.480;13.348;2023-05-03T06:56:31;102407.81;;;14.18;37.98
7264;BME280;3673;52.480;13.348;2023-05-03T06:58:58;102410.97;;;14.68;37.03
7264;BME280;3673;52.480;13.348;2023-05-03T07:01:25;102405.03;;;14.90;36.06
7264;BME280;3673;52.480;13.348;2023-05-03T07:03:52;102415.34;;;14.63;36.61
7264;BME280;3673;52.480;13.348;2023-05-03T07:06:19;102412.09;;;14.09;37.59
7264;BME280;3673;52.480;13.348;2023-05-03T07:08:49;102419.75;;;14.66;36.83
7264;BME280;3673;52.480;13.348;2023-05-03T07:11:16;102416.19;;;14.62;36.93
7264;BME280;3673;52.480;13.348;2023-05-03T07:13:45;102411.19;;;14.92;36.44
7264;BME280;3673;52.480;13.348;2023-05-03T07:16:12;102406.94;;;14.19;36.71
7264;BME280;3673;52.480;13.348;2023-05-03T07:18:39;102410.34;;;14.09;36.73
7264;BME280;3673;52.480;13.348;2023-05-03T07:21:06;102419.91;;;14.03;37.24
7264;BME280;3673;52.480;13.348;2023-05-03T07:23:33;102421.94;;;14.28;37.32
7264;BME280;3673;52.480;13.348;2023-05-03T07:26:01;102416.09;;;14.50;36.46
7264;BME280;3673;52.480;13.348;2023-05-03T07:28:28;102414.91;;;14.25;36.67
7264;BME280;3673;52.480;13.348;2023-05-03T07:30:55;102408.78;;;14.28;36.63
7264;BME280;3673;52.480;13.348;2023-05-03T07:33:22;102412.03;;;14.88;36.04
7264;BME280;3673;52.480;13.348;2023-05-03T07:35:48;102413.94;;;15.06;36.66
7264;BME280;3673;52.480;13.348;2023-05-03T07:38:15;102403.72;;;15.55;34.42
7264;BME280;3673;52.480;13.348;2023-05-03T07:40:43;102415.91;;;15.36;35.04
7264;BME280;3673;52.480;13.348;2023-05-03T07:43:11;102412.44;;;15.43;33.80
7264;BME280;3673;52.480;13.348;2023-05-03T07:45:38;102411.41;;;15.20;34.84
7264;BME280;3673;52.480;13.348;2023-05-03T07:48:05;102406.97;;;15.16;35.79
7264;BME280;3673;52.480;13.348;2023-05-03T07:50:32;102409.81;;;15.48;34.35
7264;BME280;3673;52.480;13.348;2023-05-03T07:53:01;102404.44;;;14.31;35.72
7264;BME280;3673;52.480;13.348;2023-05-03T07:55:28;102401.06;;;14.41;35.91
7264;BME280;3673;52.480;13.348;2023-05-03T07:57:57;102410.47;;;15.15;35.00
7264;BME280;3673;52.480;13.348;2023-05-03T08:00:25;102417.69;;;15.44;34.48
7264;BME280;3673;52.480;13.348;2023-05-03T08:02:52;102409.91;;;15.60;35.08
7264;BME280;3673;52.480;13.348;2023-05-03T08:05:22;102400.41;;;15.96;34.95
7264;BME280;3673;52.480;13.348;2023-05-03T08:07:52;102398.81;;;16.58;33.96
7264;BME280;3673;52.480;13.348;2023-05-03T08:10:19;102399.63;;;16.52;33.08
7264;BME280;3673;52.480;13.348;2023-05-03T08:12:46;102390.88;;;16.59;32.19
7264;BME280;3673;52.480;13.348;2023-05-03T08:15:13;102392.59;;;16.34;32.10
7264;BME280;3673;52.480;13.348;2023-05-03T08:17:43;102389.00;;;16.10;32.56
7264;BME280;3673;52.480;13.348;2023-05-03T08:20:11;102395.22;;;16.33;32.90
7264;BME280;3673;52.480;13.348;2023-05-03T08:22:39;102405.41;;;15.43;33.72
7264;BME280;3673;52.480;13.348;2023-05-03T08:25:06;102401.84;;;15.37;33.68
7264;BME280;3673;52.480;13.348;2023-05-03T08:27:34;102401.66;;;15.11;33.73
7264;BME280;3673;52.480;13.348;2023-05-03T08:30:02;102393.69;;;15.01;33.81
7264;BME280;3673;52.480;13.348;2023-05-03T08:32:29;102398.09;;;15.03;33.95
7264;BME280;3673;52.480;13.348;2023-05-03T08:34:57;102402.56;;;15.18;33.60
7264;BME280;3673;52.480;13.348;2023-05-03T08:37:24;102393.31;;;15.85;33.80
7264;BME280;3673;52.480;13.348;2023-05-03T08:39:51;102391.78;;;16.70;32.60
7264;BME280;3673;52.480;13.348;2023-05-03T08:42:18;102385.59;;;16.80;32.28
7264;BME280;3673;52.480;13.348;2023-05-03T08:44:47;102397.06;;;16.81;31.20
7264;BME280;3673;52.480;13.348;2023-05-03T08:47:15;102392.66;;;16.80;31.38
7264;BME280;3673;52.480;13.348;2023-05-03T08:49:45;102390.00;;;17.01;31.64
7264;BME280;3673;52.480;13.348;2023-05-03T08:52:14;102404.09;;;17.00;31.15
7264;BME280;3673;52.480;13.348;2023-05-03T08:54:42;102416.22;;;15.92;33.02
7264;BME280;3673;52.480;13.348;2023-05-03T08:57:10;102408.31;;;16.00;33.13
7264;BME280;3673;52.480;13.348;2023-05-03T08:59:47;102408.44;;;16.37;32.87
7264;BME280;3673;52.480;13.348;2023-05-03T09:02:14;102401.34;;;16.11;32.96
7264;BME280;3673;52.480;13.348;2023-05-03T09:04:43;102407.53;;;16.38;32.81
7264;BME280;3673;52.480;13.348;2023-05-03T09:07:11;102413.59;;;15.96;33.58
7264;BME280;3673;52.480;13.348;2023-05-03T09:09:41;102407.56;;;16.52;32.96
7264;BME280;3673;52.480;13.348;2023-05-03T09:12:08;102403.22;;;16.68;32.11
7264;BME280;3673;52.480;13.348;2023-05-03T09:14:41;102409.38;;;17.03;32.29
7264;BME280;3673;52.480;13.348;2023-05-03T09:17:17;102394.34;;;17.40;31.37
7264;BME280;3673;52.480;13.348;2023-05-03T09:19:52;102411.13;;;17.13;31.25
7264;BME280;3673;52.480;13.348;2023-05-03T09:22:21;102411.09;;;17.28;31.32
7264;BME280;3673;52.480;13.348;2023-05-03T09:24:54;102411.00;;;16.09;32.75
7264;BME280;3673;52.480;13.348;2023-05-03T09:27:22;102416.78;;;15.39;34.30
7264;BME280;3673;52.480;13.348;2023-05-03T09:29:50;102408.22;;;15.78;33.65
7264;BME280;3673;52.480;13.348;2023-05-03T09:32:18;102411.84;;;15.98;33.26
7264;BME280;3673;52.480;13.348;2023-05-03T09:34:46;102418.94;;;16.19;32.74
7264;BME280;3673;52.480;13.348;2023-05-03T09:37:13;102405.81;;;16.37;32.72
7264;BME280;3673;52.480;13.348;2023-05-03T09:39:41;102400.53;;;17.15;31.40
7264;BME280;3673;52.480;13.348;2023-05-03T09:42:14;102407.56;;;17.61;31.92
7264;BME280;3673;52.480;13.348;2023-05-03T09:44:46;102398.44;;;18.20;29.84
7264;BME280;3673;52.480;13.348;2023-05-03T09:47:16;102398.47;;;18.12;28.98
7264;BME280;3673;52.480;13.348;2023-05-03T09:49:47;102402.13;;;17.88;29.32
7264;BME280;3673;52.480;13.348;2023-05-03T09:52:14;102400.34;;;17.96;29.32
7264;BME280;3673;52.480;13.348;2023-05-03T09:54:41;102398.44;;;18.15;28.36
7264;BME280;3673;52.480;13.348;2023-05-03T09:57:09;102396.50;;;18.50;28.09
7264;BME280;3673;52.480;13.348;2023-05-03T09:59:38;102382.41;;;19.40;26.94
7264;BME280;3673;52.480;13.348;2023-05-03T10:02:06;102391.22;;;19.45;26.63
7264;BME280;3673;52.480;13.348;2023-05-03T10:04:40;102396.47;;;18.57;27.39
7264;BME280;3673;52.480;13.348;2023-05-03T10:07:13;102392.88;;;18.62;27.69
7264;BME280;3673;52.480;13.348;2023-05-03T10:09:43;102396.78;;;19.21;26.76
7264;BME280;3673;52.480;13.348;2023-05-03T10:12:11;102382.00;;;18.94;26.80
7264;BME280;3673;52.480;13.348;2023-05-03T10:14:45;102385.06;;;19.38;26.43
7264;BME280;3673;52.480;13.348;2023-05-03T10:17:17;102379.63;;;20.21;25.16
7264;BME280;3673;52.480;13.348;2023-05-03T10:19:51;102386.41;;;19.79;25.71
7264;BME280;3673;52.480;13.348;2023-05-03T10:22:20;102382.78;;;20.48;24.69
7264;BME280;3673;52.480;13.348;2023-05-03T10:25:08;102384.94;;;20.80;24.13
7264;BME280;3673;52.480;13.348;2023-05-03T10:27:49;102383.16;;;20.79;23.85
7264;BME280;3673;52.480;13.348;2023-05-03T10:30:35;102388.88;;;19.94;24.54
7264;BME280;3673;52.480;13.348;2023-05-03T10:33:30;102387.41;;;19.70;25.04
7264;BME280;3673;52.480;13.348;2023-05-03T10:36:04;102378.19;;;21.08;23.99
7264;BME280;3673;52.480;13.348;2023-05-03T10:38:32;102382.50;;;22.06;23.44
7264;BME280;3673;52.480;13.348;2023-05-03T10:40:59;102373.31;;;22.56;23.24
7264;BME280;3673;52.480;13.348;2023-05-03T10:43:41;102386.53;;;20.37;24.73
7264;BME280;3673;52.480;13.348;2023-05-03T10:46:31;102368.66;;;20.97;24.74
7264;BME280;3673;52.480;13.348;2023-05-03T10:49:19;102368.13;;;20.77;24.95
7264;BME280;3673;52.480;13.348;2023-05-03T10:51:46;102367.31;;;21.24;24.75
7264;BME280;3673;52.480;13.348;2023-05-03T10:54:13;102373.34;;;20.83;25.33
7264;BME280;3673;52.480;13.348;2023-05-03T10:56:54;102369.84;;;20.27;25.98
7264;BME280;3673;52.480;13.348;2023-05-03T10:59:26;102365.19;;;20.93;25.31
7264;BME280;3673;52.480;13.348;2023-05-03T11:02:16;102364.81;;;22.02;24.73
7264;BME280;3673;52.480;13.348;2023-05-03T11:05:09;102367.50;;;22.76;22.83
7264;BME280;3673;52.480;13.348;2023-05-03T11:07:40;102365.50;;;22.12;23.42
7264;BME280;3673;52.480;13.348;2023-05-03T11:10:19;102360.44;;;22.38;23.48
7264;BME280;3673;52.480;13.348;2023-05-03T11:12:49;102349.66;;;23.44;22.87
7264;BME280;3673;52.480;13.348;2023-05-03T11:15:16;102356.56;;;23.82;21.39
7264;BME280;3673;52.480;13.348;2023-05-03T11:17:44;102365.81;;;23.07;22.21
7264;BME280;3673;52.480;13.348;2023-05-03T11:20:11;102363.31;;;22.99;22.23
7264;BME280;3673;52.480;13.348;2023-05-03T11:22:38;102347.41;;;23.59;21.41
7264;BME280;3673;52.480;13.348;2023-05-03T11:25:06;102354.66;;;23.85;21.17
7264;BME280;3673;52.480;13.348;2023-05-03T11:27:33;102354.38;;;24.78;20.23
7264;BME280;3673;52.480;13.348;2023-05-03T11:30:00;102345.81;;;24.67;20.06
7264;BME280;3673;52.480;13.348;2023-05-03T11:32:28;102340.03;;;23.97;20.65
7264;BME280;3673;52.480;13.348;2023-05-03T11:34:57;102346.75;;;24.10;20.96
7264;BME280;3673;52.480;13.348;2023-05-03T11:37:27;102343.25;;;24.64;20.58
7264;BME280;3673;52.480;13.348;2023-05-03T11:39:53;102337.31;;;24.28;20.03
7264;BME280;3673;52.480;13.348;2023-05-03T11:42:20;102335.16;;;24.39;20.48
7264;BME280;3673;52.480;13.348;2023-05-03T11:44:49;102335.00;;;24.70;19.92
7264;BME280;3673;52.480;13.348;2023-05-03T11:47:16;102332.31;;;24.70;20.13
7264;BME280;3673;52.480;13.348;2023-05-03T11:49:51;102327.38;;;25.33;18.71
7264;BME280;3673;52.480;13.348;2023-05-03T11:52:22;102332.84;;;24.28;20.23
7264;BME280;3673;52.480;13.348;2023-05-03T11:54:50;102321.78;;;24.65;20.54
7264;BME280;3673;52.480;13.348;2023-05-03T11:57:17;102328.03;;;24.92;19.82
7264;BME280;3673;52.480;13.348;2023-05-03T11:59:44;102329.19;;;24.83;20.19
7264;BME280;3673;52.480;13.348;2023-05-03T12:02:13;102330.91;;;25.10;20.07
7264;BME280;3673;52.480;13.348;2023-05-03T12:04:42;102325.34;;;23.53;21.69
7264;BME280;3673;52.480;13.348;2023-05-03T12:07:10;102325.97;;;24.20;21.27
7264;BME280;3673;52.480;13.348;2023-05-03T12:09:39;102332.06;;;23.95;21.35
7264;BME280;3673;52.480;13.348;2023-05-03T12:12:06;102320.84;;;24.40;21.11
7264;BME280;3673;52.480;13.348;2023-05-03T12:14:56;102312.56;;;23.32;22.11
7264;BME280;3673;52.480;13.348;2023-05-03T12:17:41;102318.66;;;23.97;21.50
7264;BME280;3673;52.480;13.348;2023-05-03T12:20:16;102316.59;;;24.34;21.45
7264;BME280;3673;52.480;13.348;2023-05-03T12:22:47;102304.53;;;24.47;20.46
7264;BME280;3673;52.480;13.348;2023-05-03T12:25:15;102303.34;;;24.82;20.75
7264;BME280;3673;52.480;13.348;2023-05-03T12:27:42;102309.94;;;24.46;20.68
7264;BME280;3673;52.480;13.348;2023-05-03T12:30:10;102300.56;;;24.85;20.69
7264;BME280;3673;52.480;13.348;2023-05-03T12:32:37;102297.38;;;24.99;20.14
7264;BME280;3673;52.480;13.348;2023-05-03T12:35:05;102307.16;;;23.35;20.89
7264;BME280;3673;52.480;13.348;2023-05-03T12:37:33;102301.25;;;24.12;20.52
7264;BME280;3673;52.480;13.348;2023-05-03T12:40:01;102289.66;;;23.83;20.88
7264;BME280;3673;52.480;13.348;2023-05-03T12:42:29;102295.38;;;24.28;20.96
7264;BME280;3673;52.480;13.348;2023-05-03T12:44:56;102297.97;;;24.31;20.76
7264;BME280;3673;52.480;13.348;2023-05-03T12:47:23;102311.03;;;23.23;21.52
7264;BME280;3673;52.480;13.348;2023-05-03T12:49:51;102312.84;;;22.55;22.22
7264;BME280;3673;52.480;13.348;2023-05-03T12:52:20;102306.97;;;22.78;22.10
7264;BME280;3673;52.480;13.348;2023-05-03T12:54:47;102300.47;;;23.51;20.73
7264;BME280;3673;52.480;13.348;2023-05-03T12:57:14;102301.91;;;24.46;20.58
7264;BME280;3673;52.480;13.348;2023-05-03T12:59:43;102293.97;;;24.69;19.88
7264;BME280;3673;52.480;13.348;2023-05-03T13:02:11;102295.94;;;22.91;21.23
7264;BME280;3673;52.480;13.348;2023-05-03T13:04:38;102298.50;;;23.85;20.58
7264;BME280;3673;52.480;13.348;2023-05-03T13:07:06;102295.28;;;24.84;19.75
7264;BME280;3673;52.480;13.348;2023-05-03T13:09:42;102290.78;;;24.84;19.00